Airfield :
LOGIN :

Register | Disclaimer

   EN    FR    IT 

 










Legend :    VFR   Marginal VFR   IFR   Intensive IFR   Very Intensive IFR
Visi :
Ceiling :
>= 8 km
>= 3000ft
5 to 8 km
1000 to 3000 ft
1500m to 5 km
500 to 1000 ft
800 to 1500m
200 to 500 ft
< 800m
< 200 ft
Symbols :   Thunderstorms  Fog  Heavy snow  Heavy precipitations  Wind > 20 kt
SIGMETs :     Misc.  Thunderstorms  Icing  Turbulence  Mountain Waves  Volcanic Ashes







- Airport Elevation : 26 ft
- IATA code : GLA
- Download approach charts


EGPF - Glasgow

CURRENT METAR :
  • 160720Z AUTO 26015G27KT 9999 -RA FEW022/// BKN035/// //////TCU 06/04 Q0996 RERA

EXPIRED METARs :
  • 160650Z AUTO 26016KT 9999 -RA FEW025/// SCT046/// //////CB 07/04 Q0995
  • 160620Z AUTO 25010KT 9999 BKN023/// BKN029/// BKN042/// //////TCU 08/05 Q0995
  • 160550Z AUTO 25011KT 9999 BKN020/// //////CB 07/05 Q0995
  • 160520Z AUTO 25011KT 9999 -RA BKN021/// //////TCU 07/05 Q0996
  • 160450Z AUTO 25015KT 9999 -RA FEW020/// SCT035/// BKN043/// //////CB 07/05 Q0996

TAF TAF EGPF
Valid from the 16 at 06:00 until the 17 at 06:00 UTC


160456Z 1606/1706 25014KT 9999 BKN025
PROB40
TEMPO 1606/1608 6000 RA BKN012
PROB30
TEMPO 1606/1614 26018G28KT
PROB30
TEMPO 1608/1622 6000 SHRA BKN012
BECMG 1615/1618 32012KT
ATIS : +44 141 887 7449
No reported NOTAMs for that airfield.



MET'MAP, your aeronautical weather chart ! - Copyright ORBIFLY December 2007 - Disclaimer

ORBIFLY MET'MAP TEAM :

Programming & Development : Alexandra Zaïnal
Concept & Development : Baudouin d'Aumeries
Co-Development & Prog : Marc-Olivier Méhu
Technical & hardware support : Manuel Goepfert

Contact : metmap@orbifly.com




SOURCES & CREDITS :

   NOAA